Pagina principale
METAR-TAF:

METAR-TAF

Aeroporti :

Aeroporto di N'Djamena-Hassan Djamous

N'Djamena, Ciad

latitudine: 12-08N, longitudine: 015-02E, altezza: 295 m

Osservazione

Il bollettino è stato emesso 24 minuti fa, alle 23:00 UTC
Vento 8 kt da nord
Temperature 22°C
Umidità 13%
Pressione 1015 hPa
Visibilità 10 km o più
nessuna nube inferiore a 1500 m e nessun cumulonembo

METAR: FTTJ 162300Z 35008KT CAVOK 22/M08 Q1015 NOSIG

Ora: 00:24 (23:24 UTC)

Previsione

Il bollettino è stato emesso 12 ore e 24 minuti fa, alle 11:00 UTC
Previsione valida dal 16 alle 12 UTC al 17 alle 18 UTC
Vento 12 kt da nord/nord-est
Visibilità: 6000 m
Evoluzione graduale
dal 17 alle 14 UTC al 17 alle 15 UTC
Visibilità: 2500 m
polvere diffusa

TAF: FTTJ 161100Z 1612/1718 02012KT 6000 NSC BECMG 1714/1715 2500 DU

Osservazioni e previsioni meteorologiche di più di 4000 aeroporti (messaggi METAR e TAF).

Le stazioni disponibili sono rappresentate dai dischi gialli e rossi sulla carta.

Puntare il mouse per vedere il nome della stazione.

Clicca sopra per visualizzare le osservazioni e previsioni meteorologiche.

Per cambiare la mappa : fare clic sui pulsanti verdi con una croce nera per ingrandire, il pulsante verde con un trattino per diminuire, o sulla freccia verde per le mappe adiacenti.


METAR-TAF: